Time;durP1;ratioP1;P1;durP2;ratioP2;P2;SDS_P1;SDS_P2;PMS_P1;PMS_P2;Temp;Humidity;BMP_temperature;BMP_pressure;BME280_temperature;BME280_humidity;BME280_pressure;Samples;Min_cycle;Max_cycle;Signal;HPM_P1;HPM_P2
2022/11/10 16:20:13;;;;;;;15.95;8.10;;;13.20;63.70;;;;;;6321451;22;20041;-77
2022/11/10 16:22:39;;;;;;;12.05;7.22;;;13.10;64.50;;;;;;6339003;22;20056;-76
2022/11/10 16:25:05;;;;;;;10.63;6.05;;;13.10;64.40;;;;;;6339684;22;20426;-75
2022/11/10 16:27:32;;;;;;;10.52;6.03;;;13.00;64.30;;;;;;6339565;22;20045;-76
2022/11/10 16:29:58;;;;;;;10.18;5.20;;;13.00;64.40;;;;;;6310538;22;20064;-76
2022/11/10 16:32:24;;;;;;;8.70;4.55;;;12.90;64.60;;;;;;6339555;22;20070;-75
2022/11/10 16:34:50;;;;;;;7.78;5.13;;;12.90;64.80;;;;;;6339500;22;20438;-76
2022/11/10 16:37:15;;;;;;;9.55;4.70;;;12.90;64.90;;;;;;6338348;22;20053;-76
2022/11/10 16:39:41;;;;;;;13.43;5.80;;;12.80;64.90;;;;;;6338919;22;19995;-77
2022/11/10 16:42:08;;;;;;;9.23;4.85;;;12.80;65.30;;;;;;6339343;22;19999;-75
2022/11/10 16:44:34;;;;;;;10.98;5.43;;;12.70;65.20;;;;;;6311797;22;20388;-75
2022/11/10 16:47:00;;;;;;;8.32;4.00;;;12.70;65.70;;;;;;6339575;22;19998;-76
2022/11/10 16:49:31;;;;;;;8.18;4.50;;;12.70;65.60;;;;;;6337808;22;20070;-77
2022/11/10 16:51:57;;;;;;;8.85;4.03;;;12.60;65.60;;;;;;6339511;22;19995;-76
2022/11/10 16:54:23;;;;;;;8.23;4.70;;;12.60;65.70;;;;;;6311689;22;20334;-76
2022/11/10 16:56:49;;;;;;;7.13;4.40;;;12.60;65.70;;;;;;6338901;22;19999;-75
2022/11/10 16:59:15;;;;;;;8.77;3.83;;;12.60;65.70;;;;;;6339391;22;20010;-76
2022/11/10 17:01:44;;;;;;;5.45;3.80;;;12.50;65.70;;;;;;6339281;22;20009;-77
2022/11/10 17:04:12;;;;;;;16.88;8.02;;;12.50;65.80;;;;;;6339366;22;19999;-75
2022/11/10 17:06:37;;;;;;;16.27;8.40;;;12.40;66.40;;;;;;6339055;22;20002;-77
2022/11/10 17:09:18;;;;;;;12.45;6.70;;;12.40;66.60;;;;;;6311857;22;20423;-78
2022/11/10 17:11:44;;;;;;;12.15;5.85;;;12.40;66.70;;;;;;6339149;22;20055;-76
2022/11/10 17:14:12;;;;;;;10.50;5.60;;;12.30;66.40;;;;;;6339345;22;19998;-75
2022/11/10 17:16:42;;;;;;;9.00;5.72;;;12.30;66.70;;;;;;6311881;22;20078;-76
2022/11/10 17:19:19;;;;;;;10.25;6.55;;;12.30;66.50;;;;;;6339133;22;20060;-76
2022/11/10 17:21:48;;;;;;;11.75;6.60;;;12.30;66.70;;;;;;6339516;22;19999;-77
2022/11/10 17:24:14;;;;;;;10.32;6.40;;;12.20;66.50;;;;;;6339373;22;20003;-74
2022/11/10 17:26:41;;;;;;;13.13;6.10;;;12.20;66.50;;;;;;6339178;22;20018;-76
2022/11/10 17:29:16;;;;;;;10.43;5.97;;;12.20;66.60;;;;;;6339199;22;19991;-75
2022/11/10 17:31:43;;;;;;;12.07;6.63;;;12.10;66.60;;;;;;6311793;22;20333;-77
2022/11/10 17:34:09;;;;;;;15.77;6.82;;;12.10;66.60;;;;;;6339328;22;20632;-77
2022/11/10 17:36:35;;;;;;;13.02;6.30;;;12.00;66.60;;;;;;6339125;22;20369;-74
2022/11/10 17:39:01;;;;;;;15.13;7.20;;;12.00;66.70;;;;;;6311684;22;20003;-74
2022/11/10 17:41:27;;;;;;;18.05;7.32;;;12.00;66.70;;;;;;6339449;22;19995;-75
2022/11/10 17:43:53;;;;;;;14.85;6.70;;;11.90;66.80;;;;;;6338900;22;20287;-74
2022/11/10 17:46:19;;;;;;;13.40;6.65;;;11.90;66.90;;;;;;6338963;22;19995;-77
2022/11/10 17:48:46;;;;;;;25.35;13.90;;;11.90;66.90;;;;;;6310752;22;19995;-77
2022/11/10 17:51:19;;;;;;;33.60;16.95;;;11.80;66.90;;;;;;6338945;22;20303;-76
2022/11/10 17:53:45;;;;;;;29.05;14.00;;;11.80;67.10;;;;;;6339222;22;20429;-75
2022/11/10 17:56:12;;;;;;;16.02;8.85;;;11.80;67.00;;;;;;6339141;22;20026;-74
2022/11/10 17:58:38;;;;;;;12.65;6.75;;;11.80;67.10;;;;;;6338944;22;20025;-76
2022/11/10 18:01:16;;;;;;;16.23;7.57;;;11.70;67.10;;;;;;6338329;22;20006;-74
2022/11/10 18:03:44;;;;;;;18.98;10.30;;;11.70;67.20;;;;;;6339105;22;20069;-75
2022/11/10 18:06:15;;;;;;;20.05;9.02;;;11.60;67.30;;;;;;6338680;22;20369;-75
2022/11/10 18:08:42;;;;;;;22.52;10.52;;;11.60;67.60;;;;;;6338934;22;19994;-75
2022/11/10 18:11:14;;;;;;;16.33;9.35;;;11.60;67.60;;;;;;6338869;22;19999;-76
2022/11/10 18:13:41;;;;;;;14.02;9.70;;;11.50;67.60;;;;;;6311327;22;19999;-75
2022/11/10 18:16:09;;;;;;;14.13;8.60;;;11.50;67.60;;;;;;6338996;22;20047;-76
2022/11/10 18:18:36;;;;;;;12.52;8.02;;;11.40;67.70;;;;;;6338715;22;20299;-77
2022/11/10 18:21:03;;;;;;;14.52;8.18;;;11.40;67.60;;;;;;6338801;22;20371;-74
2022/11/10 18:23:29;;;;;;;12.25;7.25;;;11.40;67.70;;;;;;6338908;22;20445;-75
2022/11/10 18:26:05;;;;;;;13.52;7.30;;;11.30;67.70;;;;;;6338835;22;20054;-76
2022/11/10 18:28:32;;;;;;;13.63;7.93;;;11.30;67.80;;;;;;6338818;22;20033;-74
2022/11/10 18:31:05;;;;;;;10.82;7.07;;;11.30;67.80;;;;;;6338839;22;20005;-76
2022/11/10 18:33:32;;;;;;;12.43;6.93;;;11.20;67.80;;;;;;6338685;22;20410;-74
2022/11/10 18:35:59;;;;;;;10.60;7.07;;;11.20;67.80;;;;;;6339119;22;20006;-77
2022/11/10 18:38:25;;;;;;;13.45;7.22;;;11.20;67.90;;;;;;6338816;22;19999;-75
2022/11/10 18:40:51;;;;;;;11.55;6.93;;;11.20;68.00;;;;;;6339161;22;20088;-75
2022/11/10 18:43:18;;;;;;;12.65;8.10;;;11.10;68.00;;;;;;6311069;22;20093;-75
2022/11/10 18:45:44;;;;;;;11.32;7.20;;;11.10;68.10;;;;;;6337083;22;20010;-74
2022/11/10 18:48:10;;;;;;;11.90;7.15;;;11.10;68.10;;;;;;6338741;22;20026;-74
2022/11/10 18:50:37;;;;;;;9.32;6.18;;;11.00;68.10;;;;;;6310777;22;20380;-77
2022/11/10 18:53:04;;;;;;;13.27;7.00;;;11.00;68.20;;;;;;6338681;22;20018;-76
2022/11/10 18:55:30;;;;;;;13.40;7.70;;;11.00;68.20;;;;;;6338437;22;20116;-75
2022/11/10 18:57:56;;;;;;;14.40;7.95;;;11.00;68.30;;;;;;6338764;22;20504;-74
2022/11/10 19:00:22;;;;;;;10.10;7.07;;;11.00;68.40;;;;;;6338621;22;20080;-77
2022/11/10 19:02:48;;;;;;;10.45;6.65;;;10.90;68.30;;;;;;6338487;22;19991;-74
2022/11/10 19:05:14;;;;;;;11.23;6.68;;;10.90;68.40;;;;;;6338551;22;20078;-76
2022/11/10 19:07:41;;;;;;;12.75;8.18;;;10.90;68.40;;;;;;6338532;22;20410;-76
2022/11/10 19:10:07;;;;;;;12.77;7.55;;;10.80;68.50;;;;;;6338535;22;20002;-77
2022/11/10 19:12:33;;;;;;;10.85;7.07;;;10.80;68.50;;;;;;6338503;22;19998;-77
2022/11/10 19:14:59;;;;;;;10.75;7.05;;;10.80;68.50;;;;;;6337635;22;20491;-74
2022/11/10 19:17:29;;;;;;;11.43;6.65;;;10.80;68.50;;;;;;6336219;22;20000;-73
2022/11/10 19:20:09;;;;;;;14.70;7.60;;;10.70;68.60;;;;;;6338367;22;20054;-75
2022/11/10 19:22:46;;;;;;;10.52;7.10;;;10.70;68.70;;;;;;6338554;22;20070;-74
2022/11/10 19:25:24;;;;;;;13.18;7.70;;;10.70;68.80;;;;;;6338453;22;20060;-77
2022/11/10 19:27:54;;;;;;;12.95;8.20;;;10.70;68.90;;;;;;6338415;22;19999;-74
2022/11/10 19:30:39;;;;;;;16.05;9.30;;;10.70;68.90;;;;;;6338519;22;20006;-75
2022/11/10 19:33:06;;;;;;;;;;;10.60;68.90;;;;;;6338817;22;19995;-76
2022/11/10 19:35:32;;;;;;;13.65;8.25;;;10.60;68.60;;;;;;6337980;22;19899;-76
2022/11/10 19:37:58;;;;;;;13.57;8.40;;;10.60;68.50;;;;;;6310591;22;20467;-75
2022/11/10 19:40:24;;;;;;;14.65;9.50;;;10.60;68.60;;;;;;6338315;22;20461;-76
2022/11/10 19:42:50;;;;;;;15.85;8.45;;;10.60;68.80;;;;;;6338346;22;20029;-77
2022/11/10 19:45:16;;;;;;;16.35;9.95;;;10.50;68.90;;;;;;6310344;22;20003;-75
2022/11/10 19:47:42;;;;;;;21.95;9.93;;;10.50;69.20;;;;;;6338247;22;20021;-77
2022/11/10 19:50:09;;;;;;;15.18;9.30;;;10.50;69.40;;;;;;6337539;22;19995;-77
2022/11/10 19:52:35;;;;;;;16.20;8.40;;;10.50;69.30;;;;;;6337734;22;20006;-75
2022/11/10 19:55:01;;;;;;;16.92;9.77;;;10.50;69.30;;;;;;6338198;22;20030;-77
2022/11/10 19:57:27;;;;;;;26.40;13.40;;;10.40;69.20;;;;;;6338252;22;20148;-75
2022/11/10 19:59:53;;;;;;;33.30;16.80;;;10.40;69.40;;;;;;6338145;22;20003;-77
2022/11/10 20:02:20;;;;;;;25.05;13.30;;;10.40;69.50;;;;;;6338065;22;20003;-74
2022/11/10 20:10:15;;;;;;;16.83;9.10;;;10.40;69.10;;;;;;6338074;22;20311;-75
2022/11/10 20:12:41;;;;;;;13.82;8.63;;;10.40;69.00;;;;;;6337902;22;20014;-76
2022/11/10 20:15:07;;;;;;;17.02;8.52;;;10.30;69.00;;;;;;6337964;22;19999;-75
2022/11/10 20:17:34;;;;;;;14.55;8.75;;;10.30;69.20;;;;;;6337896;22;19995;-77
2022/11/10 20:19:59;;;;;;;15.93;8.82;;;10.30;69.30;;;;;;6337605;22;20438;-75
2022/11/10 20:22:26;;;;;;;14.70;8.80;;;10.30;69.40;;;;;;6337769;22;20029;-75
2022/11/10 20:24:51;;;;;;;20.02;9.82;;;10.30;69.40;;;;;;6337487;22;20013;-75
2022/11/10 20:27:17;;;;;;;16.00;8.48;;;10.20;69.40;;;;;;6337931;22;19995;-77
2022/11/10 20:29:43;;;;;;;16.55;8.60;;;10.20;69.40;;;;;;6337923;22;19999;-77
2022/11/10 20:32:10;;;;;;;14.40;8.27;;;10.20;69.40;;;;;;6337873;22;20090;-75
2022/11/10 20:34:36;;;;;;;18.90;8.88;;;10.20;69.50;;;;;;6337958;22;20060;-77
2022/11/10 20:37:01;;;;;;;19.75;9.60;;;10.20;69.60;;;;;;6337776;22;20002;-76
2022/11/10 20:39:29;;;;;;;16.83;9.57;;;10.20;69.80;;;;;;6337810;22;20006;-76
2022/11/10 20:41:55;;;;;;;16.55;9.40;;;10.10;69.90;;;;;;6337831;22;20006;-75
2022/11/10 20:44:21;;;;;;;14.75;9.32;;;10.20;70.10;;;;;;6337725;22;20003;-74
2022/11/10 20:46:48;;;;;;;19.55;8.98;;;10.10;70.10;;;;;;6337953;22;19999;-76
2022/11/10 20:49:14;;;;;;;16.40;8.70;;;10.10;70.10;;;;;;6339674;22;20497;-74
2022/11/10 20:51:41;;;;;;;13.82;8.77;;;10.10;70.10;;;;;;6339685;22;19999;-76
2022/11/10 20:54:07;;;;;;;14.23;8.07;;;10.10;70.10;;;;;;6339654;22;20003;-76
2022/11/10 20:56:34;;;;;;;12.45;7.45;;;10.10;70.00;;;;;;6339494;22;20002;-74
2022/11/10 20:59:00;;;;;;;12.63;7.13;;;10.10;70.00;;;;;;6339507;22;20117;-74
2022/11/10 21:01:26;;;;;;;10.98;7.47;;;10.00;69.80;;;;;;6339478;22;20022;-76
2022/11/10 21:03:53;;;;;;;13.60;7.22;;;10.00;69.90;;;;;;6311597;22;20013;-75
2022/11/10 21:06:19;;;;;;;14.05;5.70;;;10.00;69.90;;;;;;6339501;22;19999;-76
2022/11/10 21:08:45;;;;;;;15.27;6.38;;;10.00;69.90;;;;;;6339491;22;20002;-75
2022/11/10 21:12:47;;;;;;;12.23;6.85;;;10.00;69.90;;;;;;6339342;22;19999;-76
2022/11/10 21:13:57;;;;;;;13.75;7.75;;;10.00;69.80;;;;;;6339313;22;20002;-77
2022/11/10 21:16:23;;;;;;;12.93;7.57;;;10.00;69.90;;;;;;6339320;22;20372;-76
2022/11/10 21:18:49;;;;;;;12.07;7.32;;;10.00;70.00;;;;;;6339068;22;20063;-76
2022/11/10 21:21:25;;;;;;;13.07;7.63;;;9.90;70.00;;;;;;6339328;22;20052;-76
2022/11/10 21:23:55;;;;;;;12.25;7.68;;;9.90;70.10;;;;;;6339273;22;19995;-76
2022/11/10 21:26:22;;;;;;;15.02;8.23;;;9.90;70.10;;;;;;6339487;22;19995;-75
2022/11/10 21:28:48;;;;;;;16.23;7.88;;;9.90;70.20;;;;;;6339307;22;20076;-75
2022/11/10 21:31:14;;;;;;;10.57;6.85;;;9.90;70.20;;;;;;6339358;22;20072;-77
2022/11/10 21:33:40;;;;;;;16.83;6.68;;;9.90;70.20;;;;;;6339302;22;20441;-74
2022/11/10 21:36:06;;;;;;;9.82;6.28;;;9.90;70.10;;;;;;6339265;22;20026;-77
2022/11/10 21:38:33;;;;;;;12.35;6.10;;;9.80;70.00;;;;;;6311569;22;20396;-74
2022/11/10 21:40:59;;;;;;;13.35;7.20;;;9.80;70.70;;;;;;6338932;22;19999;-75
2022/11/10 21:43:25;;;;;;;11.38;6.22;;;9.80;70.00;;;;;;6339218;22;20026;-75
2022/11/10 21:45:58;;;;;;;12.43;6.63;;;9.80;70.10;;;;;;6311437;22;20014;-76
2022/11/10 21:48:23;;;;;;;11.77;6.93;;;9.80;70.10;;;;;;6338998;22;19999;-76
2022/11/10 21:50:49;;;;;;;10.68;6.30;;;9.80;70.10;;;;;;6338948;22;20087;-76
2022/11/10 21:53:15;;;;;;;9.77;6.50;;;9.80;70.10;;;;;;6338683;22;20001;-76
2022/11/10 21:55:41;;;;;;;16.02;6.57;;;9.70;70.10;;;;;;6339013;22;20022;-76
2022/11/10 21:58:07;;;;;;;12.55;6.53;;;9.70;70.00;;;;;;6338827;22;19998;-75
2022/11/10 22:00:33;;;;;;;8.18;5.45;;;9.70;70.00;;;;;;6311247;22;20052;-74
2022/11/10 22:02:59;;;;;;;10.32;6.15;;;9.70;70.10;;;;;;6338501;22;20094;-77
2022/11/10 22:05:25;;;;;;;11.60;6.68;;;9.70;70.10;;;;;;6338521;22;20069;-75
2022/11/10 22:07:51;;;;;;;10.07;6.22;;;9.70;70.20;;;;;;6338615;22;20068;-76
2022/11/10 22:18:47;;;;;;;;;;;9.70;69.70;;;;;;6339057;22;20033;-77
2022/11/10 22:21:13;;;;;;;12.00;7.18;;;9.60;69.70;;;;;;6338911;22;19913;-77
2022/11/10 22:26:23;;;;;;;10.85;6.82;;;9.60;69.90;;;;;;6338856;22;20461;-76
2022/11/10 22:28:50;;;;;;;11.75;5.93;;;9.60;69.90;;;;;;6338705;22;19995;-76
2022/11/10 22:31:18;;;;;;;11.10;5.82;;;9.50;69.90;;;;;;6338755;22;20373;-75
2022/11/10 22:33:45;;;;;;;13.20;7.15;;;9.50;70.00;;;;;;6338570;22;20338;-77
2022/11/10 22:36:14;;;;;;;17.33;6.95;;;9.50;70.00;;;;;;6338411;22;20056;-75
2022/11/10 22:38:41;;;;;;;12.05;6.93;;;9.40;70.10;;;;;;6338662;22;20006;-77
2022/11/10 22:44:08;;;;;;;10.20;6.45;;;9.40;70.10;;;;;;6338663;22;20021;-75
2022/11/10 22:46:41;;;;;;;10.20;6.85;;;9.40;70.10;;;;;;6338588;22;20049;-75
2022/11/10 22:49:12;;;;;;;12.95;6.82;;;9.40;70.30;;;;;;6338711;22;20021;-76
2022/11/10 22:51:39;;;;;;;12.15;6.63;;;9.40;70.20;;;;;;6310965;22;20006;-76
2022/11/10 22:54:09;;;;;;;10.75;6.88;;;9.30;70.10;;;;;;6338604;22;20037;-75
2022/11/10 22:56:35;;;;;;;13.43;7.13;;;9.30;70.10;;;;;;6310920;22;20049;-75
2022/11/10 22:59:02;;;;;;;12.93;6.85;;;9.30;70.10;;;;;;6338496;22;20026;-75
2022/11/10 23:01:28;;;;;;;14.63;7.43;;;9.30;70.20;;;;;;6338521;22;20496;-77
2022/11/10 23:03:55;;;;;;;11.07;6.88;;;9.30;70.30;;;;;;6337835;22;20034;-76
2022/11/10 23:06:21;;;;;;;15.30;7.93;;;9.30;70.30;;;;;;6310647;22;20083;-75
2022/11/10 23:08:47;;;;;;;13.13;7.50;;;9.30;70.40;;;;;;6310779;22;20026;-77
2022/11/10 23:11:15;;;;;;;12.00;7.43;;;9.20;70.30;;;;;;6338105;22;19995;-76
2022/11/10 23:13:41;;;;;;;12.55;6.72;;;9.20;70.30;;;;;;6338727;22;20005;-75
2022/11/10 23:16:13;;;;;;;8.52;6.13;;;9.20;70.30;;;;;;6338298;22;20469;-75
2022/11/10 23:18:41;;;;;;;13.77;7.13;;;9.20;70.30;;;;;;6338387;22;19998;-77
2022/11/10 23:21:10;;;;;;;11.10;6.18;;;9.20;70.30;;;;;;6307043;22;20334;-77
2022/11/10 23:23:38;;;;;;;9.05;6.13;;;9.10;70.20;;;;;;6306921;22;20419;-74
2022/11/10 23:26:10;;;;;;;8.23;6.05;;;9.10;70.30;;;;;;6279503;22;20007;-75
2022/11/10 23:28:37;;;;;;;8.90;5.90;;;9.10;70.30;;;;;;6307019;22;19995;-75
2022/11/10 23:31:05;;;;;;;11.13;6.82;;;9.10;70.20;;;;;;6306807;22;20006;-76
2022/11/10 23:33:32;;;;;;;9.95;6.25;;;9.10;70.30;;;;;;6279596;22;20058;-77
2022/11/10 23:35:58;;;;;;;8.25;5.15;;;9.10;70.30;;;;;;6306865;22;20003;-77
2022/11/10 23:38:25;;;;;;;10.23;6.75;;;9.10;70.30;;;;;;6306834;22;20500;-75
2022/11/10 23:40:54;;;;;;;10.23;6.88;;;9.00;70.20;;;;;;6306846;22;20484;-77
2022/11/10 23:43:20;;;;;;;10.40;6.28;;;9.00;70.30;;;;;;6306792;22;20078;-74
2022/11/10 23:45:46;;;;;;;11.57;6.97;;;9.00;70.30;;;;;;6306753;22;20435;-75
2022/11/10 23:48:12;;;;;;;13.48;7.45;;;9.00;70.30;;;;;;6279284;22;20003;-76
2022/11/10 23:50:38;;;;;;;10.27;7.28;;;9.00;70.30;;;;;;6306851;22;20501;-76
2022/11/10 23:53:04;;;;;;;16.50;8.85;;;9.00;70.30;;;;;;6306814;22;19999;-76
2022/11/10 23:55:30;;;;;;;13.48;8.43;;;9.00;70.50;;;;;;6306772;22;20358;-76
2022/11/10 23:57:55;;;;;;;13.60;8.18;;;8.90;70.50;;;;;;6279333;22;20449;-77
